Time;durP1;ratioP1;P1;durP2;ratioP2;P2;SDS_P1;SDS_P2;PMS_P1;PMS_P2;Temp;Humidity;BMP_temperature;BMP_pressure;BME280_temperature;BME280_humidity;BME280_pressure;Samples;Min_cycle;Max_cycle;Signal;HPM_P1;HPM_P2
2023/05/22 04:39:17;;;;;;;;;;;;;;;16.28;77.91;100119.40;110009;1279;22473;-47
2023/05/22 04:41:44;;;;;;;12.50;3.30;;;;;;;16.41;77.77;100118.52;109977;1279;23459;-43
2023/05/22 04:44:13;;;;;;;9.20;3.10;;;;;;;16.54;77.59;100119.23;110013;1276;22374;-43
2023/05/22 04:46:41;;;;;;;8.10;3.70;;;;;;;16.65;76.92;100115.23;109850;1279;22346;-43
2023/05/22 04:49:08;;;;;;;6.30;4.00;;;;;;;16.73;76.51;100116.78;109896;1279;22924;-49
2023/05/22 04:51:35;;;;;;;5.20;3.70;;;;;;;16.81;75.80;100115.86;109688;1279;22528;-42
2023/05/22 04:54:02;;;;;;;10.00;3.80;;;;;;;16.87;75.38;100113.41;109864;1279;22331;-44
2023/05/22 04:56:30;;;;;;;5.50;3.40;;;;;;;16.93;75.28;100115.67;109130;1276;22520;-48
2023/05/22 04:59:04;;;;;;;7.60;3.10;;;;;;;16.99;75.09;100113.23;106800;1279;24265;-44
2023/05/22 05:01:33;;;;;;;4.70;3.30;;;;;;;17.05;74.86;100115.34;109037;1275;23254;-42
2023/05/22 05:04:01;;;;;;;11.00;4.20;;;;;;;17.10;74.16;100114.87;109900;1278;22442;-42
2023/05/22 05:06:29;;;;;;;15.30;3.50;;;;;;;17.13;74.15;100114.05;109757;1275;22299;-48
2023/05/22 05:08:56;;;;;;;7.50;3.70;;;;;;;17.19;74.07;100113.70;109886;1275;23048;-48
2023/05/22 05:11:30;;;;;;;9.70;3.70;;;;;;;17.27;73.95;100113.28;107120;1299;546320;-42
2023/05/22 05:13:57;;;;;;;7.70;3.70;;;;;;;17.31;73.71;100114.91;109543;1279;22489;-47
2023/05/22 05:16:25;;;;;;;4.90;3.40;;;;;;;17.42;73.78;100113.35;109496;1285;22484;-43
2023/05/22 05:18:55;;;;;;;10.00;3.20;;;;;;;17.58;73.33;100111.80;109212;1285;23276;-49
2023/05/22 05:21:26;;;;;;;6.90;3.40;;;;;;;17.73;72.86;100110.80;109269;1280;22406;-47
2023/05/22 05:23:57;;;;;;;17.20;3.60;;;;;;;17.88;72.13;100117.73;109104;1280;23064;-43
2023/05/22 05:26:26;;;;;;;12.20;4.30;;;;;;;18.00;70.96;100117.88;108111;1273;23720;-43
2023/05/22 05:28:55;;;;;;;8.20;3.20;;;;;;;18.10;70.17;100116.83;109606;1279;22894;-49
2023/05/22 05:31:28;;;;;;;10.20;3.90;;;;;;;18.19;69.63;100117.24;109495;1279;23698;-42
2023/05/22 05:38:33;;;;;;;9.20;3.70;;;;;;;18.45;68.09;100120.41;109491;1272;22489;-43
2023/05/22 05:41:38;;;;;;;12.90;3.90;;;;;;;18.45;67.75;100120.39;109688;1273;22461;-41
2023/05/22 05:45:08;;;;;;;6.00;3.60;;;;;;;18.47;67.19;100125.27;109548;1273;22388;-47
2023/05/22 05:52:19;;;;;;;17.00;3.60;;;;;;;18.79;66.39;100121.14;109700;1275;22533;-43
2023/05/22 05:55:11;;;;;;;9.00;3.80;;;;;;;18.96;65.58;100124.77;109757;1279;22430;-43
2023/05/22 05:57:39;;;;;;;10.40;4.30;;;;;;;19.07;64.96;100121.86;109358;1279;22382;-49
2023/05/22 06:00:10;;;;;;;8.70;3.50;;;;;;;19.19;64.42;100120.91;109613;1274;22279;-42
2023/05/22 06:02:44;;;;;;;5.00;2.90;;;;;;;19.33;63.83;100112.58;109239;1272;22722;-42
2023/05/22 06:05:30;;;;;;;4.30;3.10;;;;;;;19.48;63.33;100117.97;109475;1279;22479;-43
2023/05/22 06:08:15;;;;;;;8.10;3.50;;;;;;;19.62;62.88;100109.66;109708;1273;22984;-42
2023/05/22 06:10:44;;;;;;;4.90;3.10;;;;;;;19.73;62.34;100110.85;108679;1273;22986;-42
2023/05/22 06:13:18;;;;;;;7.80;3.50;;;;;;;19.79;61.68;100104.55;109322;1279;22419;-43
2023/05/22 06:15:49;;;;;;;4.60;3.40;;;;;;;19.86;61.48;100104.65;109060;1277;22449;-47
2023/05/22 06:22:03;;;;;;;6.20;3.10;;;;;;;19.89;60.99;100100.61;109112;1274;22413;-48
2023/05/22 06:25:38;;;;;;;4.50;3.10;;;;;;;20.02;60.95;100101.17;109182;1275;22192;-44
2023/05/22 06:28:42;;;;;;;4.30;2.90;;;;;;;20.13;60.19;100101.75;109090;1271;22406;-47
2023/05/22 06:39:15;;;;;;;6.60;2.80;;;;;;;20.53;59.33;100098.48;109779;1273;22411;-49
2023/05/22 06:42:13;;;;;;;6.20;2.80;;;;;;;20.60;58.47;100099.21;109543;1276;22855;-43
2023/05/22 06:44:59;;;;;;;8.20;3.20;;;;;;;20.61;58.01;100095.60;108881;1277;22509;-48
2023/05/22 06:47:39;;;;;;;5.70;2.90;;;;;;;20.68;58.01;100097.05;109775;1276;22931;-43
2023/05/22 06:50:09;;;;;;;5.90;3.40;;;;;;;20.78;57.76;100095.21;109800;1279;22395;-46
2023/05/22 06:52:42;;;;;;;7.00;3.20;;;;;;;20.82;57.27;100094.87;108371;1273;22328;-43
2023/05/22 06:55:15;;;;;;;9.20;3.20;;;;;;;20.89;56.95;100096.83;108852;1273;23182;-47
2023/05/22 06:57:55;;;;;;;13.30;4.00;;;;;;;20.97;56.36;100091.14;108957;1273;22449;-48
2023/05/22 07:00:24;;;;;;;6.70;2.70;;;;;;;21.04;56.34;100088.86;109409;1273;23102;-47
2023/05/22 07:03:22;;;;;;;11.50;3.20;;;;;;;21.14;55.65;100089.30;109466;1274;22462;-48
2023/05/22 07:06:07;;;;;;;7.40;3.20;;;;;;;21.11;55.12;100085.91;109771;1279;22573;-48
2023/05/22 07:08:41;;;;;;;10.90;4.50;;;;;;;21.07;55.31;100085.77;109502;1272;23205;-48
2023/05/22 07:11:20;;;;;;;7.00;2.80;;;;;;;21.19;54.45;100081.59;109147;1272;22537;-42
2023/05/22 07:13:47;;;;;;;8.60;3.20;;;;;;;21.35;54.02;100085.50;109725;1276;22329;-49
2023/05/22 07:16:14;;;;;;;10.20;3.80;;;;;;;21.47;54.08;100086.69;109673;1274;23148;-48
2023/05/22 07:18:54;;;;;;;12.50;4.20;;;;;;;21.57;53.19;100081.95;109595;1273;22357;-42
2023/05/22 07:21:40;;;;;;;20.50;3.70;;;;;;;21.64;53.52;100081.08;108865;1270;22897;-42
2023/05/22 07:24:51;;;;;;;8.30;3.20;;;;;;;21.70;52.67;100078.99;109422;1272;22331;-43
2023/05/22 07:27:41;;;;;;;10.40;3.00;;;;;;;21.70;53.17;100079.16;109934;1270;22466;-42
2023/05/22 07:34:08;;;;;;;9.40;2.80;;;;;;;21.91;52.40;100078.83;109850;1271;22291;-41
2023/05/22 07:37:17;;;;;;;4.80;3.00;;;;;;;21.97;52.43;100080.30;109472;1274;22453;-50
2023/05/22 07:39:46;;;;;;;6.20;3.30;;;;;;;22.05;52.07;100078.69;109781;1273;22390;-49
2023/05/22 07:42:13;;;;;;;5.60;2.80;;;;;;;22.09;51.78;100079.92;109787;1274;22403;-49
2023/05/22 07:44:46;;;;;;;7.40;3.20;;;;;;;22.12;51.60;100075.52;109923;1278;22401;-43
2023/05/22 07:47:13;;;;;;;4.30;2.30;;;;;;;22.18;52.10;100073.04;109739;1276;22818;-48
2023/05/22 07:49:42;;;;;;;4.70;2.50;;;;;;;22.31;51.79;100074.84;109975;1276;22541;-44
2023/05/22 07:52:10;;;;;;;8.20;2.70;;;;;;;22.42;51.68;100076.80;109381;1270;22750;-49
2023/05/22 08:02:01;;;;;;;5.70;3.10;;;;;;;22.65;50.13;100067.20;109294;1270;23132;-42
2023/05/22 08:05:47;;;;;;;5.60;3.10;;;;;;;22.64;50.13;100069.58;109382;1270;22462;-48
2023/05/22 08:08:33;;;;;;;7.30;3.00;;;;;;;22.72;50.12;100065.77;109783;1278;23338;-41
2023/05/22 08:11:00;;;;;;;10.10;2.80;;;;;;;22.87;49.74;100064.80;109725;1270;22505;-48
2023/05/22 08:16:42;;;;;;;4.50;2.60;;;;;;;22.85;49.16;100066.85;109380;1270;22527;-49
2023/05/22 08:19:09;;;;;;;4.00;2.70;;;;;;;22.67;49.39;100070.30;110034;1277;22394;-42
2023/05/22 08:22:07;;;;;;;3.20;2.70;;;;;;;22.68;49.52;100069.75;109904;1270;23096;-44
2023/05/22 08:24:40;;;;;;;7.70;3.10;;;;;;;22.82;49.43;100070.23;109972;1270;22405;-43
2023/05/22 08:27:26;;;;;;;6.90;2.90;;;;;;;22.95;48.89;100065.82;110035;1271;22340;-42
2023/05/22 08:29:53;;;;;;;5.30;3.00;;;;;;;23.04;48.52;100062.42;109963;1274;22398;-41
2023/05/22 08:32:30;;;;;;;13.10;2.80;;;;;;;23.13;48.08;100066.61;109619;1276;22383;-43
2023/05/22 08:36:00;;;;;;;4.00;2.60;;;;;;;23.26;48.38;100061.08;109970;1274;22355;-43
2023/05/22 08:38:39;;;;;;;9.10;3.00;;;;;;;23.36;47.57;100057.27;110011;1270;22394;-42
2023/05/22 08:41:07;;;;;;;6.30;3.00;;;;;;;23.40;47.44;100057.23;109219;1272;25463;-50
2023/05/22 08:44:31;;;;;;;7.80;2.80;;;;;;;23.48;47.17;100063.75;109341;1276;22423;-43
2023/05/22 08:48:13;;;;;;;2.80;2.50;;;;;;;23.66;46.78;100064.35;108608;1276;22356;-49
2023/05/22 08:55:03;;;;;;;7.00;2.70;;;;;;;23.48;46.36;100058.39;109843;1277;24270;-42
2023/05/22 08:57:43;;;;;;;6.90;2.80;;;;;;;23.48;46.89;100061.96;109646;1273;22418;-48
2023/05/22 09:04:41;;;;;;;9.50;3.50;;;;;;;23.23;46.10;100062.46;109585;1273;22981;-42
2023/05/22 09:07:32;;;;;;;6.70;3.00;;;;;;;23.10;46.85;100060.13;108976;1271;22523;-47
2023/05/22 09:10:06;;;;;;;6.70;2.80;;;;;;;23.17;46.95;100054.99;109835;1275;22505;-43
2023/05/22 09:12:33;;;;;;;6.30;3.30;;;;;;;23.21;47.16;100055.46;109966;1270;22451;-44
2023/05/22 09:15:15;;;;;;;3.10;2.70;;;;;;;23.22;47.09;100055.40;109863;1271;22315;-49
2023/05/22 09:17:42;;;;;;;6.50;2.80;;;;;;;23.20;46.87;100049.14;109763;1270;22459;-43
2023/05/22 09:20:12;;;;;;;6.60;3.10;;;;;;;23.17;47.04;100053.71;109890;1270;22899;-48
2023/05/22 09:22:39;;;;;;;10.10;3.00;;;;;;;23.26;47.30;100051.27;109654;1276;22395;-50
2023/05/22 09:25:06;;;;;;;8.70;3.80;;;;;;;23.42;47.00;100046.98;110060;1273;22762;-50
2023/05/22 09:27:36;;;;;;;9.70;2.90;;;;;;;23.57;46.74;100051.14;109731;1270;22800;-49
2023/05/22 09:30:05;;;;;;;6.50;3.00;;;;;;;23.82;46.29;100048.25;109898;1275;22299;-47
2023/05/22 09:32:36;;;;;;;5.90;2.70;;;;;;;24.12;45.82;100041.11;109609;1270;22579;-48
2023/05/22 09:35:09;;;;;;;4.20;2.20;;;;;;;24.41;44.93;100040.45;109242;1274;23254;-42
2023/05/22 09:37:45;;;;;;;5.40;3.00;;;;;;;24.59;44.03;100038.13;109208;1270;22353;-48
2023/05/22 09:40:17;;;;;;;3.90;3.00;;;;;;;24.52;44.37;100038.89;109433;1275;22518;-48
2023/05/22 09:42:54;;;;;;;10.30;3.00;;;;;;;24.42;44.73;100040.77;109387;1270;22577;-43
2023/05/22 09:45:36;;;;;;;6.40;2.60;;;;;;;24.25;44.46;100043.73;108961;1273;22535;-44
2023/05/22 09:48:06;;;;;;;6.70;2.70;;;;;;;24.03;44.82;100038.49;108938;1270;22955;-47
2023/05/22 09:50:35;;;;;;;2.80;2.40;;;;;;;23.87;44.98;100035.27;109183;1270;23485;-47
2023/05/22 09:53:07;;;;;;;5.30;2.80;;;;;;;23.79;44.95;100032.80;108983;1275;22558;-47
2023/05/22 09:55:35;;;;;;;3.30;2.60;;;;;;;23.72;45.59;100035.70;109994;1270;22400;-45
2023/05/22 09:58:05;;;;;;;11.50;2.50;;;;;;;23.62;45.52;100034.48;109991;1270;22320;-48
2023/05/22 10:00:36;;;;;;;10.50;2.60;;;;;;;23.47;46.39;100036.04;108617;1276;22523;-48
2023/05/22 10:03:14;;;;;;;6.40;2.60;;;;;;;23.38;47.16;100039.77;109161;1270;22819;-47
2023/05/22 10:05:50;;;;;;;5.80;2.50;;;;;;;23.21;47.76;100042.67;108783;1270;22551;-48
2023/05/22 10:08:28;;;;;;;6.70;2.40;;;;;;;22.90;48.46;100044.03;109732;1276;22414;-43
2023/05/22 10:10:56;;;;;;;7.30;2.30;;;;;;;22.56;50.03;100040.67;109850;1273;22470;-42
2023/05/22 10:13:23;;;;;;;2.80;2.30;;;;;;;22.35;51.44;100037.52;110058;1276;22977;-42
2023/05/22 10:15:50;;;;;;;7.00;2.80;;;;;;;22.25;52.43;100037.01;109747;1270;22409;-42
2023/05/22 10:18:17;;;;;;;5.10;2.80;;;;;;;22.18;53.31;100033.45;109898;1270;22639;-42
2023/05/22 10:20:47;;;;;;;8.20;2.70;;;;;;;22.18;53.68;100027.95;110076;1270;22552;-47
2023/05/22 10:23:15;;;;;;;3.30;2.20;;;;;;;22.25;53.17;100024.39;109895;1272;22459;-46
2023/05/22 10:25:44;;;;;;;5.00;2.50;;;;;;;22.38;50.98;100019.97;109960;1270;22279;-41
2023/05/22 10:28:13;;;;;;;12.30;3.10;;;;;;;22.67;50.71;100012.86;110040;1272;22360;-42
2023/05/22 10:31:05;;;;;;;4.30;2.50;;;;;;;23.10;50.60;100010.56;109869;1273;22794;-42
2023/05/22 10:34:04;;;;;;;2.80;1.90;;;;;;;23.53;48.38;100004.02;109584;1275;22406;-42
2023/05/22 10:36:56;;;;;;;6.40;2.30;;;;;;;23.62;47.50;100001.55;109939;1271;22527;-43
2023/05/22 10:39:47;;;;;;;5.20;2.20;;;;;;;23.73;46.24;99995.88;110115;1270;23184;-41
2023/05/22 10:42:15;;;;;;;5.70;1.80;;;;;;;23.98;45.57;99999.05;110140;1275;22480;-46
2023/05/22 10:44:42;;;;;;;5.10;2.20;;;;;;;24.17;44.47;100001.98;110077;1270;22428;-46
2023/05/22 10:47:11;;;;;;;12.00;2.60;;;;;;;24.35;43.83;100000.92;109986;1275;23121;-46
2023/05/22 10:49:45;;;;;;;8.40;2.10;;;;;;;24.48;43.46;99997.98;110258;1272;22495;-46
2023/05/22 10:52:13;;;;;;;2.90;1.80;;;;;;;24.51;43.53;100000.48;110033;1270;23269;-40
2023/05/22 10:54:42;;;;;;;4.00;1.40;;;;;;;24.47;43.12;100000.73;110014;1270;22203;-40
2023/05/22 10:57:13;;;;;;;5.00;2.20;;;;;;;24.32;43.22;100003.57;110045;1260;22292;-41
2023/05/22 10:59:41;;;;;;;5.70;1.70;;;;;;;24.19;43.65;100000.60;110117;1271;23134;-40
2023/05/22 11:02:19;;;;;;;6.90;2.30;;;;;;;24.13;44.13;99994.75;110150;1272;22265;-40
2023/05/22 11:04:46;;;;;;;5.40;1.90;;;;;;;24.09;44.03;99997.47;110198;1275;22196;-45
2023/05/22 11:07:14;;;;;;;6.40;2.00;;;;;;;24.08;44.30;99995.94;110226;1273;22441;-41
2023/05/22 11:09:42;;;;;;;4.00;1.90;;;;;;;24.09;44.55;99995.89;110226;1276;22401;-42
2023/05/22 11:12:19;;;;;;;12.00;2.10;;;;;;;24.11;44.47;99993.78;110231;1275;22397;-41
2023/05/22 11:14:55;;;;;;;3.80;2.00;;;;;;;24.09;43.94;99989.66;110292;1276;22297;-42
2023/05/22 11:17:29;;;;;;;5.10;2.10;;;;;;;23.92;43.72;100001.70;110206;1272;22441;-45
2023/05/22 11:20:00;;;;;;;8.70;2.00;;;;;;;23.74;46.06;100000.48;110178;1276;22352;-45
2023/05/22 11:22:30;;;;;;;6.40;1.90;;;;;;;23.56;48.42;100000.44;110310;1275;22326;-46
2023/05/22 11:24:57;;;;;;;5.60;2.10;;;;;;;23.40;48.89;99995.48;110138;1276;22732;-41
2023/05/22 11:27:24;;;;;;;3.40;1.90;;;;;;;23.30;49.20;99992.69;110126;1276;22544;-41
2023/05/22 11:29:51;;;;;;;4.00;2.10;;;;;;;23.24;49.90;99988.59;109019;1276;22534;-41
2023/05/22 11:32:21;;;;;;;4.80;2.10;;;;;;;23.22;49.50;99986.23;107961;1275;22527;-51
2023/05/22 11:34:51;;;;;;;2.40;1.90;;;;;;;23.19;49.56;99987.28;109931;1269;22521;-48
2023/05/22 11:37:18;;;;;;;4.10;2.00;;;;;;;23.11;49.86;99987.02;107257;1275;22500;-46
2023/05/22 11:39:55;;;;;;;2.70;2.20;;;;;;;22.99;49.80;99984.65;108324;1275;22347;-41
2023/05/22 11:42:22;;;;;;;10.30;2.20;;;;;;;22.88;50.44;99984.04;110270;1276;22407;-41
2023/05/22 11:44:49;;;;;;;4.90;2.70;;;;;;;22.71;51.82;99984.75;109127;1276;22395;-47
2023/05/22 11:47:16;;;;;;;4.40;3.00;;;;;;;22.52;51.87;99984.77;110194;1270;23104;-46
2023/05/22 11:49:43;;;;;;;7.60;2.90;;;;;;;22.36;52.54;99991.66;110183;1275;22386;-48
2023/05/22 11:52:11;;;;;;;7.20;2.80;;;;;;;22.21;53.56;99988.86;108785;1275;22520;-46
2023/05/22 11:54:37;;;;;;;6.70;2.90;;;;;;;22.03;54.19;99991.22;110244;1272;22240;-42
2023/05/22 11:57:06;;;;;;;8.70;3.10;;;;;;;21.81;55.50;99996.42;110276;1273;22224;-42
2023/05/22 11:59:34;;;;;;;12.50;3.30;;;;;;;21.52;58.02;100000.41;109725;1272;22376;-46
2023/05/22 12:02:02;;;;;;;5.40;4.00;;;;;;;21.17;60.17;100002.62;107921;1276;22657;-46
2023/05/22 12:04:36;;;;;;;8.30;3.70;;;;;;;20.82;61.59;100003.05;108109;1275;25494;-46
2023/05/22 12:07:04;;;;;;;8.20;3.80;;;;;;;20.44;64.05;100000.52;108114;1276;22520;-41
2023/05/22 12:09:31;;;;;;;6.90;3.50;;;;;;;20.13;65.49;100000.98;107818;1276;22515;-46
2023/05/22 12:11:59;;;;;;;4.30;3.40;;;;;;;19.92;66.78;99998.56;110231;1270;22460;-42
2023/05/22 12:14:27;;;;;;;9.40;3.80;;;;;;;19.79;67.79;99999.64;110162;1272;22410;-42
2023/05/22 12:16:59;;;;;;;8.00;3.60;;;;;;;19.71;68.84;99998.56;110295;1269;22424;-46
2023/05/22 12:19:26;;;;;;;6.00;3.10;;;;;;;19.69;70.72;99993.90;108245;1273;22672;-46
2023/05/22 12:21:54;;;;;;;5.80;3.70;;;;;;;19.69;72.60;99996.20;109753;1272;22283;-43
2023/05/22 12:24:22;;;;;;;6.80;3.20;;;;;;;19.71;74.19;99997.14;107503;1276;23935;-43
2023/05/22 12:26:50;;;;;;;5.40;2.80;;;;;;;19.75;75.10;99995.39;107595;1276;22563;-42
2023/05/22 12:29:20;;;;;;;6.40;3.30;;;;;;;19.79;75.52;99995.73;107793;1276;22607;-41
2023/05/22 12:31:48;;;;;;;6.20;3.50;;;;;;;19.85;74.94;99994.24;110076;1275;22304;-43
2023/05/22 12:34:20;;;;;;;5.70;3.40;;;;;;;19.92;74.84;99995.35;110107;1276;22303;-42
2023/05/22 12:36:47;;;;;;;4.60;3.80;;;;;;;20.01;74.23;99990.73;109257;1276;23924;-47
2023/05/22 12:39:16;;;;;;;6.20;3.70;;;;;;;20.09;74.07;99987.00;108379;1276;24277;-46
2023/05/22 12:41:44;;;;;;;4.60;3.30;;;;;;;20.16;74.00;99988.27;107663;1276;25567;-45
2023/05/22 12:44:14;;;;;;;7.30;3.70;;;;;;;20.23;73.88;99979.30;107587;1276;23140;-41
2023/05/22 12:46:41;;;;;;;4.50;3.40;;;;;;;20.31;73.90;99976.13;110249;1276;22328;-42
2023/05/22 12:49:09;;;;;;;7.80;2.90;;;;;;;20.37;73.19;99972.30;110210;1276;22445;-45
2023/05/22 12:51:37;;;;;;;4.30;3.00;;;;;;;20.42;72.80;99974.00;109456;1277;23066;-45
2023/05/22 12:54:05;;;;;;;5.00;2.90;;;;;;;20.50;72.92;99973.37;109368;1276;22713;-45
2023/05/22 12:56:32;;;;;;;4.40;3.20;;;;;;;20.59;73.07;99981.44;108284;1275;22523;-41
2023/05/22 12:59:00;;;;;;;7.00;2.70;;;;;;;20.69;72.40;99982.03;108236;1276;22513;-47
2023/05/22 13:01:28;;;;;;;5.50;2.60;;;;;;;20.73;68.81;99979.02;107212;1276;23742;-46
2023/05/22 13:03:56;;;;;;;3.60;2.60;;;;;;;20.71;66.95;99973.62;109619;1276;22656;-42
2023/05/22 13:06:23;;;;;;;4.10;2.70;;;;;;;20.65;65.76;99976.71;107573;1276;25328;-46
2023/05/22 13:08:51;;;;;;;2.80;2.50;;;;;;;20.60;65.27;99975.02;107856;1276;25428;-47
2023/05/22 13:11:22;;;;;;;2.70;2.40;;;;;;;20.56;65.34;99978.35;107557;1276;23143;-42
2023/05/22 13:13:49;;;;;;;5.10;2.40;;;;;;;20.55;65.29;99985.02;107472;1277;22533;-42
2023/05/22 13:16:17;;;;;;;3.50;2.90;;;;;;;20.53;65.50;99983.48;106897;1277;22530;-41
2023/05/22 13:18:45;;;;;;;4.00;2.80;;;;;;;20.55;65.81;99980.73;107236;1277;23429;-42
2023/05/22 13:21:13;;;;;;;4.50;2.80;;;;;;;20.55;66.67;99980.19;107369;1277;24182;-45
